Watertown, SD (57201)

3:40 PM CDT on September 29, 2016 (GMT -0500)
212 And 81 | | Change Station

Elev 1722 ft 44.89 °N, 97.11 °W | Updated 27 seconds ago

Clear
Clear
64.4 °F
Feels Like 64.4 °F
N
6.3
Wind Variable Wind from ENE

Today
High -- | Low -- °F
--% Chance of Precip.
Yesterday
High -- | Low -- °F
Precip. -- in
Pressure 30.43 in
Visibility 10.0 miles
Clouds Clear
Dew Point 48 °F
Humidity 55%
Rainfall 0.00 in
Snow Depth Not available.
7:24 AM 7:11 PM
Waning Crescent, 1% visible
METAR KATY 291953Z AUTO 14008KT 10SM CLR 18/08 A3041 RMK AO2 SLP302 T01830083
Pressure 30.43 in
Visibility 10.0 miles
Clouds Clear
Dew Point 48 °F
Humidity 55%
Rainfall 0.00 in
Snow Depth Not available.
7:24 AM 7:11 PM
Waning Crescent, 1% visible
METAR KATY 291953Z AUTO 14008KT 10SM CLR 18/08 A3041 RMK AO2 SLP302 T01830083

10-Day Weather Forecast

Almanac

Astronomy

Sep. 29, 2016 Rise Set
Actual Time
Civil Twilight
Nautical Twilight
Astronomical Twilight
Moon
Length of Visible Light
Length of Day
Tomorrow will be .
, % of the Moon is Illuminated

Today's Extremes

State Highs State Lows

Community

WunderPhotos

Upload Photos

1,942,564 photos uploaded!

WunderBlog® & News

Nearby

Air Quality

  Air Quality AQ Index Pollutant
Not available.

Snow Depth

Station Depth Elevation

Earthquake Activity

City Distance Mag. Time & Date
Minimum magnitude displayed is 2.5.

Coastal Water Temperatures

Place Temperature

Stations

Nearby Weather Stations

Station Location Temp. Windchill Dew Point Humidity Wind Precip. Elev Updated Type
                   

Watches & Warnings

There are currently no watches in effect.